Oak Grove, AR (72660)

7:52 AM CST on December 26, 2014 (GMT -0600)
Cruise Inn | Change Station
CLOSE
Current Station
Personal Weather Station
Location: Kimberling City, MO
Elevation: 1132 ft
Nearby Weather Stations

Elev 1132 ft 36.60 °N, 93.42 °W | Updated 2 seconds ago

Partly Cloudy
Partly Cloudy
45.0 °F
Feels Like 42 °F
N
6.0
Wind Variable Wind from SSE
Gusts 10.7 mph

Today
High -- | Low -- °F
--% Chance of Precip.
Yesterday
High -- | Low -- °F
Precip. -- in
7:23 AM 5:04 PM
Waxing Crescent, 26% visible
Pressure 30.04 in
Visibility 10.0 miles
Clouds Scattered Clouds 15000 ft
Windchill 42 °F
Dew Point 38 °F
Humidity 77%
Rainfall 0.00 in
Snow Depth Not available.
UV 1.0 out of 12
Pollen 5.50 out of 12
Air Quality Not available.
Flu Activity Not available.
METAR KBBG 261345Z 14009KT 10SM SCT150 05/03 A3004

More Conditions Fewer Conditions

Pressure 30.04 in
Visibility 10.0 miles
Clouds Scattered Clouds 15000 ft
Windchill 42 °F
Dew Point 38 °F
Humidity 77%
Rainfall 0.00 in
Snow Depth Not available.
UV 1.0 out of 12
Pollen 5.50 out of 12
Air Quality Not available.
Flu Activity Not available.
METAR KBBG 261345Z 14009KT 10SM SCT150 05/03 A3004

More Conditions Fewer Conditions

10-Day Weather Forecast

Almanac

Astronomy

Dec. 26, 2014 Rise Set
Actual Time
Civil Twilight
Nautical Twilight
Astronomical Twilight
Moon
Length of Visible Light
Length of Day
Tomorrow will be .
, % of the Moon is Illuminated

Today's Extremes

State Highs State Lows

Community

WunderPhotos

Upload Photos

1,780,593 photos uploaded!

WunderBlogs® & News

Nearby

Air Quality

  Air Quality AQ Index Pollutant
Not available.

Snow Depth

Station Depth Elevation

Earthquake Activity

City Distance Mag. Time & Date
Minimum magnitude displayed is 2.5.

Coastal Water Temperatures

Place Temperature

Nearby Weather Stations